(541)-479-2230 [email protected]

City of Grants Pass

Grants Pass AirportĀ 

Current Weather Conditions Medford Airport:
MEDFORD, OR
Metar
KMFR 201353Z AUTO 00000KT 10SM OVC033 02/02 A3018 RMK AO2 SLP225 T00220022

13:53 UTC

Wind: 0° 0kt

Visibility: 10 SM

Sky: OVC 3300 ft

Temp: 2 deg C / 35.6 deg F

Dewpoint: 2 deg C / 35.6 deg F

Pressure: 30.18 inHg

TAF
KMFR 201416Z 2014/2112 VRB03KT P6SM VCSH OVC040 FM201900 VRB03KT P6SM SCT025 BKN050 FM210000 VRB05KT P6SM SCT070